Time;durP1;ratioP1;P1;durP2;ratioP2;P2;SDS_P1;SDS_P2;PMS_P1;PMS_P2;Temp;Humidity;BMP_temperature;BMP_pressure;BME280_temperature;BME280_humidity;BME280_pressure;Samples;Min_cycle;Max_cycle;Signal;HPM_P1;HPM_P2
2023/09/08 00:00:00;;;;;;;5.53;4.90;;;;;;;22.31;52.71;98499.38;4896481;29;20049;-70
2023/09/08 00:02:28;;;;;;;6.65;4.88;;;;;;;22.43;52.35;98510.56;4880805;29;20033;-69
2023/09/08 00:04:55;;;;;;;6.75;5.00;;;;;;;22.42;52.16;98511.69;4865565;29;20037;-70
2023/09/08 00:07:20;;;;;;;6.25;4.95;;;;;;;22.43;51.75;98500.41;4865262;29;20036;-69
2023/09/08 00:09:46;;;;;;;4.97;4.38;;;;;;;22.49;51.26;98506.56;4896235;29;20045;-70
2023/09/08 00:12:11;;;;;;;7.65;4.70;;;;;;;22.53;51.21;98505.63;4897086;29;20095;-71
2023/09/08 00:14:37;;;;;;;9.05;4.70;;;;;;;22.57;51.32;98503.88;4896936;29;20056;-70
2023/09/08 00:17:04;;;;;;;7.32;4.65;;;;;;;22.42;51.08;98479.56;4880464;29;20028;-71
2023/09/08 00:19:30;;;;;;;6.63;4.78;;;;;;;22.59;50.89;98500.81;4897193;29;20061;-70
2023/09/08 00:21:56;;;;;;;5.30;4.30;;;;;;;22.58;50.82;98500.00;4880282;29;20033;-70
2023/09/08 00:24:22;;;;;;;5.93;4.28;;;;;;;22.50;50.71;98481.53;4880217;29;20407;-70
2023/09/08 00:26:48;;;;;;;7.55;4.30;;;;;;;22.59;50.66;98500.81;4896108;29;20073;-70
2023/09/08 00:29:14;;;;;;;6.00;4.43;;;;;;;22.61;50.71;98504.88;4864342;29;20040;-70
2023/09/08 00:31:41;;;;;;;6.20;4.97;;;;;;;22.59;50.69;98495.34;4896363;29;20032;-71
2023/09/08 00:34:07;;;;;;;6.03;4.30;;;;;;;22.58;50.55;98483.53;4896880;29;20041;-72
2023/09/08 00:36:32;;;;;;;5.57;4.38;;;;;;;22.64;50.47;98497.94;4895702;29;20494;-72
2023/09/08 00:38:58;;;;;;;6.25;4.72;;;;;;;22.64;50.59;98495.22;4895308;29;20543;-73
2023/09/08 00:41:23;;;;;;;7.35;4.55;;;;;;;22.66;50.37;98498.47;4895863;29;20028;-71
2023/09/08 00:43:49;;;;;;;6.20;4.82;;;;;;;22.60;50.17;98492.28;4879663;29;20488;-71
2023/09/08 00:46:16;;;;;;;5.85;5.20;;;;;;;22.61;50.49;98490.38;4908667;29;20176;-71
2023/09/08 00:48:41;;;;;;;7.03;5.03;;;;;;;22.58;50.41;98488.22;4880231;29;20119;-71
2023/09/08 00:51:09;;;;;;;7.15;4.68;;;;;;;22.64;50.31;98495.22;4876866;29;20457;-71
2023/09/08 00:53:35;;;;;;;5.07;4.30;;;;;;;22.56;50.73;98495.97;4879816;29;20040;-71
2023/09/08 00:56:00;;;;;;;4.90;4.40;;;;;;;22.62;50.42;98500.22;4879716;29;20255;-71
2023/09/08 00:58:26;;;;;;;5.07;4.57;;;;;;;22.65;50.32;98499.59;4895271;29;20503;-71
2023/09/08 01:00:52;;;;;;;6.45;5.00;;;;;;;22.55;50.67;98499.81;4895226;29;20028;-71
2023/09/08 01:03:18;;;;;;;7.00;5.32;;;;;;;22.59;50.16;98500.81;4895093;29;20033;-72
2023/09/08 01:05:46;;;;;;;6.60;4.95;;;;;;;22.64;49.98;98508.94;4879720;29;20024;-72
2023/09/08 01:08:12;;;;;;;9.52;4.95;;;;;;;22.50;50.80;98502.69;4882743;29;20555;-71
2023/09/08 01:10:39;;;;;;;9.73;4.55;;;;;;;22.39;51.22;98515.06;4895172;29;20108;-71
2023/09/08 01:13:04;;;;;;;5.55;4.95;;;;;;;22.19;52.11;98505.41;4879134;29;20089;-72
2023/09/08 01:15:29;;;;;;;6.22;5.00;;;;;;;21.80;53.50;98500.53;4896291;29;20068;-71
2023/09/08 01:17:55;;;;;;;6.00;4.75;;;;;;;21.64;54.19;98501.19;4894817;29;20426;-71
2023/09/08 01:20:24;;;;;;;5.38;4.75;;;;;;;21.34;54.78;98513.66;4896133;29;20040;-71
2023/09/08 01:23:12;;;;;;;7.28;5.30;;;;;;;21.21;55.56;98514.50;4879244;29;20571;-70
2023/09/08 01:25:55;;;;;;;5.47;4.97;;;;;;;21.10;55.98;98518.53;4891915;29;20069;-70
2023/09/08 01:28:21;;;;;;;7.28;4.88;;;;;;;20.78;56.77;98493.94;4879412;29;20032;-71
2023/09/08 01:30:47;;;;;;;7.22;5.30;;;;;;;20.83;56.85;98518.50;4881919;29;20081;-71
2023/09/08 01:33:13;;;;;;;6.05;5.28;;;;;;;20.67;57.13;98515.25;4879035;29;20044;-71
2023/09/08 01:35:38;;;;;;;6.18;5.18;;;;;;;20.58;57.23;98503.38;4879995;29;20111;-73
2023/09/08 01:38:03;;;;;;;6.65;4.90;;;;;;;20.67;57.37;98512.50;4879690;29;20040;-72
2023/09/08 01:40:30;;;;;;;5.88;5.28;;;;;;;20.59;57.81;98505.78;4882368;29;20028;-72
2023/09/08 01:42:56;;;;;;;7.93;5.57;;;;;;;20.50;57.60;98490.38;4890427;29;20059;-72
2023/09/08 01:45:21;;;;;;;6.88;5.60;;;;;;;20.49;58.43;98497.75;4885629;29;20029;-72
2023/09/08 01:47:47;;;;;;;7.47;5.20;;;;;;;20.40;57.94;98509.69;4906595;29;20410;-72
2023/09/08 01:50:12;;;;;;;6.75;5.20;;;;;;;20.41;58.10;98506.66;4883477;29;20039;-72
2023/09/08 01:52:38;;;;;;;7.65;5.78;;;;;;;20.32;58.69;98507.66;4883330;29;20036;-72
2023/09/08 01:55:04;;;;;;;7.10;5.43;;;;;;;20.27;58.97;98499.53;4898893;29;20075;-73
2023/09/08 01:57:29;;;;;;;5.43;4.93;;;;;;;20.32;58.76;98503.00;4880385;29;20041;-72
2023/09/08 01:59:55;;;;;;;6.65;5.50;;;;;;;20.15;58.89;98489.03;4882010;29;20036;-72
2023/09/08 02:02:20;;;;;;;5.97;5.20;;;;;;;20.06;58.90;98490.00;4883475;29;20084;-73
2023/09/08 02:04:46;;;;;;;6.63;5.10;;;;;;;20.06;58.45;98487.28;4898912;29;20444;-72
2023/09/08 02:07:12;;;;;;;6.72;5.00;;;;;;;20.06;58.77;98493.56;4883251;29;20040;-72
2023/09/08 02:09:38;;;;;;;7.93;5.82;;;;;;;19.89;58.99;98488.63;4898878;29;20036;-72
2023/09/08 02:12:04;;;;;;;7.22;5.40;;;;;;;19.96;59.03;98510.13;4898489;29;20463;-72
2023/09/08 02:14:29;;;;;;;5.80;5.30;;;;;;;19.96;59.41;98504.66;4882843;29;20028;-73
2023/09/08 02:16:56;;;;;;;6.53;5.53;;;;;;;19.78;59.36;98497.28;4883099;29;20389;-72
2023/09/08 02:19:23;;;;;;;6.32;5.60;;;;;;;19.69;60.18;98491.69;4883026;29;20553;-72
2023/09/08 02:21:48;;;;;;;6.82;5.88;;;;;;;19.61;60.32;98494.25;4882845;29;20068;-72
2023/09/08 02:24:13;;;;;;;7.18;6.13;;;;;;;19.59;60.80;98497.28;4889279;29;20107;-72
2023/09/08 02:26:39;;;;;;;5.82;5.22;;;;;;;19.52;60.92;98496.03;4899621;29;20036;-72
2023/09/08 02:29:05;;;;;;;6.75;5.47;;;;;;;19.56;60.86;98495.13;4898481;29;20395;-73
2023/09/08 02:31:31;;;;;;;8.65;5.50;;;;;;;19.59;61.05;98496.47;4882635;29;20036;-72
2023/09/08 02:33:57;;;;;;;7.43;5.50;;;;;;;19.51;60.73;98486.22;4913811;29;20123;-72
2023/09/08 02:36:25;;;;;;;6.53;5.45;;;;;;;19.56;60.80;98495.13;4898183;29;20115;-72
2023/09/08 02:38:52;;;;;;;6.63;5.45;;;;;;;19.55;61.08;98498.19;4898184;29;20029;-72
2023/09/08 02:41:18;;;;;;;6.38;5.78;;;;;;;19.50;60.95;98490.03;4898175;29;20060;-73
2023/09/08 02:43:44;;;;;;;6.07;5.22;;;;;;;19.60;61.01;98489.91;4882743;29;20116;-73
2023/09/08 02:46:09;;;;;;;7.82;5.65;;;;;;;19.63;60.88;98495.59;4882574;29;20128;-73
2023/09/08 02:48:35;;;;;;;6.90;5.40;;;;;;;19.59;60.52;98478.16;4866887;29;20029;-72
2023/09/08 02:51:01;;;;;;;7.40;5.30;;;;;;;19.66;60.34;98494.19;4865458;29;20029;-72
2023/09/08 02:53:28;;;;;;;6.28;5.25;;;;;;;19.51;60.18;98480.75;4894183;29;20036;-72
2023/09/08 02:55:55;;;;;;;6.35;5.75;;;;;;;19.55;60.70;98503.63;4898779;29;20685;-72
2023/09/08 02:58:20;;;;;;;7.00;5.82;;;;;;;19.47;60.27;98490.63;4882407;29;20139;-72
2023/09/08 03:00:47;;;;;;;9.68;6.57;;;;;;;19.40;60.70;98498.38;4882185;29;20044;-72
2023/09/08 03:03:12;;;;;;;6.45;5.68;;;;;;;19.27;60.75;98484.31;4882247;29;20159;-72
2023/09/08 03:05:37;;;;;;;8.23;5.72;;;;;;;19.22;61.24;98495.31;4882180;29;20123;-72
2023/09/08 03:08:03;;;;;;;7.75;5.40;;;;;;;19.22;61.29;98489.84;4882054;29;20032;-72
2023/09/08 03:10:28;;;;;;;6.13;5.40;;;;;;;19.15;61.50;98480.38;4882114;29;20388;-72
2023/09/08 03:12:54;;;;;;;8.05;6.50;;;;;;;19.19;61.87;98490.44;4866280;29;20063;-72
2023/09/08 03:15:20;;;;;;;6.95;5.05;;;;;;;19.13;61.92;98469.75;4882128;29;20040;-72
2023/09/08 03:17:45;;;;;;;7.75;5.80;;;;;;;19.08;61.73;98477.19;4883882;29;20032;-72
2023/09/08 03:20:13;;;;;;;8.80;5.47;;;;;;;19.06;61.90;98490.34;4881978;29;20032;-73
2023/09/08 03:22:38;;;;;;;7.32;5.65;;;;;;;18.92;61.67;98468.41;4897325;29;20444;-72
2023/09/08 03:25:04;;;;;;;6.07;5.47;;;;;;;18.98;62.21;98488.22;4881623;29;20044;-73
2023/09/08 03:27:29;;;;;;;8.73;5.93;;;;;;;18.97;61.92;98492.09;4882009;29;20057;-72
2023/09/08 03:29:55;;;;;;;7.38;5.75;;;;;;;18.90;62.44;98476.06;4897341;29;20040;-72
2023/09/08 03:32:20;;;;;;;7.78;6.20;;;;;;;18.86;62.68;98485.91;4881292;29;20408;-72
2023/09/08 03:34:47;;;;;;;8.27;6.10;;;;;;;18.79;62.68;98469.06;4897123;29;20491;-72
2023/09/08 03:37:13;;;;;;;7.15;6.00;;;;;;;18.84;62.43;98484.56;4897185;29;20039;-72
2023/09/08 03:39:38;;;;;;;7.28;6.03;;;;;;;18.79;62.49;98477.25;4881637;29;20040;-72
2023/09/08 03:42:03;;;;;;;7.63;6.10;;;;;;;18.75;62.68;98486.31;4898048;29;20052;-72
2023/09/08 03:44:29;;;;;;;7.57;6.22;;;;;;;18.64;62.70;98482.91;4897115;29;20028;-72
2023/09/08 03:46:54;;;;;;;7.97;6.20;;;;;;;18.61;62.92;98488.94;4881482;29;20470;-72
2023/09/08 03:49:20;;;;;;;10.07;6.78;;;;;;;18.46;63.21;98470.00;4897123;29;20032;-72
2023/09/08 03:51:45;;;;;;;6.93;5.95;;;;;;;18.55;63.30;98490.09;4880975;29;20028;-72
2023/09/08 03:54:10;;;;;;;6.90;6.20;;;;;;;18.43;63.58;98476.00;4865854;29;20088;-72
2023/09/08 03:56:36;;;;;;;6.90;6.13;;;;;;;18.40;63.66;98484.75;4896908;29;20028;-72
2023/09/08 03:59:02;;;;;;;7.60;5.97;;;;;;;18.22;63.82;98469.13;4896846;29;20040;-72
2023/09/08 04:01:27;;;;;;;7.78;6.35;;;;;;;18.29;64.23;98486.78;4896565;29;20403;-72
2023/09/08 04:03:53;;;;;;;6.95;6.07;;;;;;;18.21;64.09;98478.38;4897752;29;20043;-72
2023/09/08 04:06:18;;;;;;;7.65;6.32;;;;;;;18.21;64.16;98483.84;4895998;29;20106;-72
2023/09/08 04:08:44;;;;;;;8.98;6.47;;;;;;;18.19;64.19;98491.50;4896760;29;20036;-72
2023/09/08 04:11:09;;;;;;;7.10;6.40;;;;;;;18.04;64.69;98478.78;4896361;29;20021;-73
2023/09/08 04:13:34;;;;;;;7.22;6.43;;;;;;;18.05;64.60;98476.88;4897888;29;20044;-72
2023/09/08 04:16:00;;;;;;;8.80;6.63;;;;;;;18.03;65.00;98490.00;4880631;29;20480;-72
2023/09/08 04:18:25;;;;;;;7.10;6.40;;;;;;;17.92;65.29;98479.16;4880944;29;20081;-72
2023/09/08 04:20:51;;;;;;;8.02;6.68;;;;;;;17.90;65.52;98488.72;4882943;29;20139;-73
2023/09/08 04:23:16;;;;;;;9.68;7.05;;;;;;;17.77;66.04;98479.31;4895986;29;20045;-72
2023/09/08 04:25:41;;;;;;;10.00;6.60;;;;;;;17.77;65.81;98479.31;4880577;29;20032;-73
2023/09/08 04:28:07;;;;;;;9.13;6.80;;;;;;;17.79;65.74;98482.56;4865248;29;20040;-72
2023/09/08 04:30:32;;;;;;;7.63;6.78;;;;;;;17.74;65.76;98479.84;4896198;29;20089;-72
2023/09/08 04:32:58;;;;;;;8.43;6.75;;;;;;;17.70;66.04;98484.25;4880333;29;20040;-72
2023/09/08 04:35:23;;;;;;;10.90;6.75;;;;;;;17.75;66.09;98497.84;4882984;29;20144;-72
2023/09/08 04:37:49;;;;;;;7.90;6.63;;;;;;;17.71;66.33;98496.75;4880464;29;20115;-72
2023/09/08 04:40:15;;;;;;;8.48;6.60;;;;;;;17.68;66.21;98494.63;4896125;29;20522;-72
2023/09/08 04:42:40;;;;;;;7.72;6.82;;;;;;;17.61;66.56;98485.94;4880606;29;20038;-72
2023/09/08 04:45:07;;;;;;;8.15;6.68;;;;;;;17.48;66.49;98470.19;4880539;29;20021;-72
2023/09/08 04:47:34;;;;;;;8.43;6.57;;;;;;;17.49;66.51;98477.28;4895917;29;20029;-72
2023/09/08 04:49:59;;;;;;;8.13;6.72;;;;;;;17.49;66.99;98482.72;4895954;29;20024;-72
2023/09/08 04:52:25;;;;;;;9.18;7.80;;;;;;;17.48;66.82;98491.19;4880169;29;20704;-72
2023/09/08 04:54:50;;;;;;;8.10;6.97;;;;;;;17.49;67.03;98496.34;4886770;29;20036;-72
2023/09/08 04:57:15;;;;;;;9.95;6.82;;;;;;;17.29;66.97;98461.06;4895660;29;20096;-72
2023/09/08 04:59:41;;;;;;;8.90;6.85;;;;;;;17.45;67.40;98497.19;4880072;29;20708;-72
2023/09/08 05:02:07;;;;;;;8.23;7.43;;;;;;;17.37;67.05;98481.44;4885350;29;20506;-72
2023/09/08 05:04:33;;;;;;;8.88;7.65;;;;;;;17.45;67.23;98498.00;4883155;29;20032;-72
2023/09/08 05:06:59;;;;;;;9.63;6.88;;;;;;;17.44;67.26;98496.38;4880068;29;20128;-72
2023/09/08 05:09:25;;;;;;;11.10;7.88;;;;;;;17.41;67.76;98494.19;4895624;29;20119;-72
2023/09/08 05:11:51;;;;;;;8.68;7.50;;;;;;;17.44;66.49;98496.38;4879725;29;20066;-72
2023/09/08 05:14:16;;;;;;;7.85;7.00;;;;;;;17.41;67.73;98507.03;4895623;29;20064;-72
2023/09/08 05:16:46;;;;;;;11.52;7.53;;;;;;;17.37;67.15;98487.69;4895254;29;20036;-72
2023/09/08 05:19:14;;;;;;;7.65;6.68;;;;;;;17.38;67.50;98496.69;4879906;29;20064;-72
2023/09/08 05:21:43;;;;;;;11.00;8.05;;;;;;;17.39;67.72;98504.56;4879949;29;20020;-72
2023/09/08 05:24:09;;;;;;;7.68;6.95;;;;;;;17.38;67.91;98502.94;4864704;29;20032;-72
2023/09/08 05:26:37;;;;;;;9.60;7.85;;;;;;;17.40;67.75;98511.66;4879930;29;20040;-72
2023/09/08 05:29:02;;;;;;;10.18;8.00;;;;;;;17.44;67.70;98515.44;4879697;29;20068;-72
2023/09/08 05:31:28;;;;;;;8.10;7.25;;;;;;;17.46;67.89;98510.50;4895248;29;20039;-72
2023/09/08 05:33:53;;;;;;;12.52;7.60;;;;;;;17.53;68.16;98510.22;4895315;29;20089;-73
2023/09/08 05:36:19;;;;;;;8.38;7.47;;;;;;;17.51;67.84;98510.53;4895256;29;20398;-72
2023/09/08 05:38:45;;;;;;;8.25;7.50;;;;;;;17.54;68.09;98509.97;4879594;29;20085;-72
2023/09/08 05:41:10;;;;;;;8.98;8.10;;;;;;;17.46;68.20;98488.72;4879483;29;20025;-73
2023/09/08 05:43:36;;;;;;;7.53;6.72;;;;;;;17.63;68.49;98511.00;4879788;29;20029;-73
2023/09/08 05:46:01;;;;;;;8.52;7.40;;;;;;;17.73;68.58;98527.28;4921162;29;20020;-73
2023/09/08 05:48:27;;;;;;;9.07;7.45;;;;;;;17.75;68.65;98514.19;4897427;29;20460;-73
2023/09/08 05:50:52;;;;;;;10.43;7.63;;;;;;;17.83;68.30;98510.84;4879595;29;20527;-73
2023/09/08 05:53:18;;;;;;;11.63;8.65;;;;;;;18.01;67.98;98517.53;4879165;29;20032;-73
2023/09/08 05:55:44;;;;;;;10.73;7.97;;;;;;;17.92;68.39;98503.69;4879482;29;20036;-73
2023/09/08 05:58:10;;;;;;;9.32;7.20;;;;;;;18.11;68.04;98517.44;4879446;29;20809;-72
2023/09/08 06:00:36;;;;;;;11.48;8.70;;;;;;;18.17;67.67;98508.16;4895121;29;20036;-73
2023/09/08 06:03:02;;;;;;;8.60;7.70;;;;;;;18.29;67.51;98511.31;4887667;29;20043;-72
2023/09/08 06:05:28;;;;;;;10.23;7.63;;;;;;;18.42;67.36;98524.28;4879317;29;20028;-72
2023/09/08 06:07:54;;;;;;;8.57;7.68;;;;;;;18.41;67.90;98521.84;4894825;29;20064;-71
2023/09/08 06:10:19;;;;;;;8.45;7.55;;;;;;;18.51;67.55;98521.75;4896151;29;20075;-73
2023/09/08 06:12:45;;;;;;;8.00;7.20;;;;;;;18.61;67.23;98524.41;4879184;29;20044;-73
2023/09/08 06:15:10;;;;;;;8.48;7.53;;;;;;;18.67;67.42;98525.97;4879369;29;20029;-73
2023/09/08 06:17:36;;;;;;;9.27;7.22;;;;;;;18.66;67.21;98502.53;4894709;29;20105;-73
2023/09/08 06:20:01;;;;;;;9.15;7.35;;;;;;;18.79;67.08;98526.38;4879474;29;20119;-73
2023/09/08 06:22:27;;;;;;;8.27;7.22;;;;;;;18.78;66.95;98516.59;4879097;29;20044;-73
2023/09/08 06:24:52;;;;;;;8.98;7.07;;;;;;;18.88;66.60;98516.47;4879090;29;20028;-73
2023/09/08 06:27:18;;;;;;;8.23;7.18;;;;;;;18.92;66.19;98522.97;4894901;29;20119;-73
2023/09/08 06:29:43;;;;;;;9.00;7.30;;;;;;;18.92;65.86;98503.88;4897930;29;20025;-73
2023/09/08 06:32:11;;;;;;;7.88;7.07;;;;;;;18.96;65.72;98507.66;4897864;29;20036;-73
2023/09/08 06:34:39;;;;;;;10.07;7.13;;;;;;;19.18;65.68;98524.28;4898114;29;20394;-74
2023/09/08 06:37:05;;;;;;;8.40;7.13;;;;;;;19.13;65.88;98513.44;4882484;29;20048;-73
2023/09/08 06:39:30;;;;;;;8.27;7.47;;;;;;;19.39;65.31;98529.53;4889055;29;20119;-72
2023/09/08 06:41:56;;;;;;;11.07;6.93;;;;;;;19.50;65.27;98525.56;4897144;29;20044;-73
2023/09/08 06:44:21;;;;;;;8.20;7.25;;;;;;;19.58;65.55;98522.97;4882341;29;20036;-73
2023/09/08 06:46:47;;;;;;;10.27;7.53;;;;;;;19.62;65.54;98520.47;4882346;29;20052;-73
2023/09/08 06:49:13;;;;;;;9.93;6.85;;;;;;;19.71;65.75;98518.72;4898508;29;20056;-73
2023/09/08 06:51:39;;;;;;;8.02;6.97;;;;;;;19.77;65.21;98520.25;4879097;29;20132;-72
2023/09/08 06:54:05;;;;;;;8.75;7.18;;;;;;;19.94;65.58;98534.22;4889341;29;20069;-74
2023/09/08 06:56:37;;;;;;;8.13;6.93;;;;;;;19.74;64.20;98512.66;4883684;29;20043;-72
2023/09/08 06:59:04;;;;;;;8.73;6.97;;;;;;;19.89;64.47;98521.44;4898551;29;20033;-73
2023/09/08 07:01:29;;;;;;;8.63;6.68;;;;;;;20.04;64.37;98539.53;4902539;29;20100;-73
2023/09/08 07:03:55;;;;;;;8.65;6.70;;;;;;;20.02;63.95;98541.75;4902782;29;20077;-72
2023/09/08 07:06:22;;;;;;;8.05;6.50;;;;;;;20.17;63.29;98538.78;4897700;29;20531;-73
2023/09/08 07:08:52;;;;;;;8.75;7.20;;;;;;;20.21;62.89;98534.31;4889941;29;20044;-73
2023/09/08 07:11:18;;;;;;;8.18;6.40;;;;;;;20.26;62.06;98537.00;4913099;29;20051;-74
2023/09/08 07:13:45;;;;;;;7.38;6.10;;;;;;;20.33;62.00;98540.16;4881964;29;20495;-73
2023/09/08 07:16:10;;;;;;;7.10;6.35;;;;;;;20.39;61.29;98530.78;4881822;29;20043;-73
2023/09/08 07:18:37;;;;;;;6.50;5.63;;;;;;;20.34;60.76;98536.34;4881851;29;20503;-73
2023/09/08 07:21:04;;;;;;;7.90;5.78;;;;;;;20.49;60.23;98525.13;4897363;29;20111;-73
2023/09/08 07:23:29;;;;;;;6.35;5.75;;;;;;;20.55;60.40;98523.13;4881976;29;20459;-73
2023/09/08 07:25:55;;;;;;;6.18;5.57;;;;;;;20.72;59.92;98533.50;4881630;29;20088;-73
2023/09/08 07:28:25;;;;;;;7.55;6.53;;;;;;;20.72;60.15;98528.03;4881535;29;20402;-73
2023/09/08 07:30:52;;;;;;;8.82;6.70;;;;;;;20.74;60.43;98531.25;4881804;29;20040;-73
2023/09/08 07:33:19;;;;;;;7.65;6.55;;;;;;;20.78;60.64;98529.53;4896949;29;20039;-73
2023/09/08 07:35:45;;;;;;;7.82;6.50;;;;;;;20.80;61.17;98527.31;4896824;29;20040;-74
2023/09/08 07:38:10;;;;;;;7.00;6.30;;;;;;;20.97;60.30;98547.53;4881477;29;20144;-73
2023/09/08 07:40:36;;;;;;;7.22;6.03;;;;;;;21.04;59.65;98541.63;4897051;29;20036;-72
2023/09/08 07:43:02;;;;;;;8.48;6.40;;;;;;;21.11;59.51;98542.06;4881148;29;20056;-73
2023/09/08 07:45:28;;;;;;;7.85;6.25;;;;;;;21.18;59.61;98556.19;4896907;29;20048;-74
2023/09/08 07:47:53;;;;;;;8.73;6.35;;;;;;;21.18;60.00;98537.81;4881374;29;20063;-73
2023/09/08 07:50:21;;;;;;;7.93;6.53;;;;;;;21.33;59.94;98545.72;4884403;29;20491;-73
2023/09/08 07:52:48;;;;;;;10.07;7.07;;;;;;;21.42;60.09;98547.75;4880866;29;20028;-73
2023/09/08 07:55:14;;;;;;;8.82;6.25;;;;;;;21.52;59.55;98542.06;4881228;29;20037;-73
2023/09/08 07:57:41;;;;;;;7.57;6.05;;;;;;;21.59;59.53;98537.75;4881099;29;20373;-73
2023/09/08 08:00:07;;;;;;;7.63;6.53;;;;;;;21.70;59.22;98536.44;4896750;29;20033;-73
2023/09/08 08:02:42;;;;;;;7.30;6.10;;;;;;;21.76;59.36;98532.47;4881252;29;20040;-73
2023/09/08 08:05:07;;;;;;;7.80;6.30;;;;;;;21.82;58.92;98544.91;4880945;29;20039;-73
2023/09/08 08:07:33;;;;;;;8.05;6.53;;;;;;;21.86;58.75;98521.28;4896564;29;20477;-73
2023/09/08 08:09:58;;;;;;;11.38;6.28;;;;;;;21.93;58.59;98520.88;4896541;29;20047;-73
2023/09/08 08:12:23;;;;;;;8.52;6.00;;;;;;;22.14;58.35;98543.97;4896360;29;20036;-73
2023/09/08 08:14:49;;;;;;;7.30;6.00;;;;;;;22.16;58.21;98524.44;4896397;29;20156;-72
2023/09/08 08:17:17;;;;;;;8.10;5.68;;;;;;;22.30;58.07;98541.63;4880759;29;20028;-74
2023/09/08 08:19:42;;;;;;;7.25;5.75;;;;;;;22.31;57.46;98537.78;4897524;29;20483;-73
2023/09/08 08:22:08;;;;;;;9.50;6.10;;;;;;;22.47;57.25;98539.03;4896223;29;20025;-73
2023/09/08 08:24:33;;;;;;;6.28;5.68;;;;;;;22.61;56.83;98542.53;4880626;29;20056;-72
2023/09/08 08:26:58;;;;;;;7.03;5.30;;;;;;;22.57;56.30;98519.53;4880743;29;20067;-73
2023/09/08 08:29:24;;;;;;;7.45;6.30;;;;;;;22.70;56.49;98546.16;4897396;29;20040;-74
2023/09/08 08:31:49;;;;;;;6.63;5.15;;;;;;;22.67;56.02;98536.59;4880132;29;20391;-72
2023/09/08 08:34:14;;;;;;;6.97;6.10;;;;;;;22.81;55.09;98536.50;4880303;29;20032;-73
2023/09/08 08:36:40;;;;;;;7.13;5.50;;;;;;;22.93;54.76;98542.22;4880477;29;20505;-73
2023/09/08 08:39:05;;;;;;;6.30;5.70;;;;;;;22.85;54.11;98531.19;4897419;29;20048;-74
2023/09/08 08:41:30;;;;;;;9.02;5.63;;;;;;;22.96;54.44;98522.38;4880192;29;20032;-73
2023/09/08 08:43:56;;;;;;;7.57;5.65;;;;;;;23.15;53.81;98542.13;4897044;29;20045;-73
2023/09/08 08:46:22;;;;;;;8.45;5.65;;;;;;;23.13;53.82;98516.91;4880299;29;20109;-73
2023/09/08 08:48:48;;;;;;;7.93;5.68;;;;;;;23.26;54.46;98532.50;4896942;29;20036;-73
2023/09/08 08:51:16;;;;;;;8.50;5.90;;;;;;;23.44;53.69;98543.56;4879415;29;20506;-72
2023/09/08 08:53:42;;;;;;;6.40;5.72;;;;;;;23.35;53.50;98519.63;4880112;29;20089;-73
2023/09/08 08:56:09;;;;;;;8.40;5.28;;;;;;;23.42;53.93;98518.34;4895878;29;20417;-74
2023/09/08 08:58:36;;;;;;;8.77;5.68;;;;;;;23.56;53.27;98513.50;4895762;29;20119;-73
2023/09/08 09:01:02;;;;;;;7.22;5.57;;;;;;;23.60;52.58;98509.78;4879748;29;20504;-73
2023/09/08 09:03:28;;;;;;;7.53;5.53;;;;;;;23.78;52.92;98532.66;4899958;29;20048;-74
2023/09/08 09:05:53;;;;;;;6.88;5.50;;;;;;;23.88;52.41;98533.13;4880024;29;20060;-74
2023/09/08 09:08:19;;;;;;;7.10;5.43;;;;;;;23.91;52.22;98529.75;4895570;29;20455;-73
2023/09/08 09:10:44;;;;;;;6.30;5.45;;;;;;;23.94;52.84;98511.78;4879845;29;20047;-73
2023/09/08 09:13:10;;;;;;;6.93;5.90;;;;;;;23.96;52.16;98501.25;4895376;29;20422;-73
2023/09/08 09:15:35;;;;;;;6.65;5.72;;;;;;;24.20;52.97;98526.34;4879638;29;20039;-73
2023/09/08 09:18:07;;;;;;;7.30;5.82;;;;;;;24.23;52.57;98517.44;4895406;29;20613;-73
2023/09/08 09:20:33;;;;;;;8.52;5.72;;;;;;;24.30;52.10;98523.28;4895430;29;20041;-73
2023/09/08 09:22:59;;;;;;;6.80;5.50;;;;;;;24.37;51.64;98518.06;4879640;29;20038;-74
2023/09/08 09:25:26;;;;;;;6.05;5.43;;;;;;;24.46;51.03;98527.13;4895255;29;20044;-74
2023/09/08 09:28:02;;;;;;;6.43;4.72;;;;;;;24.58;51.69;98520.94;4879786;29;20032;-74
2023/09/08 09:30:30;;;;;;;6.78;5.07;;;;;;;24.66;51.33;98515.44;4895390;29;20045;-74
2023/09/08 09:33:13;;;;;;;7.03;5.03;;;;;;;24.61;50.21;98507.34;4879313;29;20033;-73
2023/09/08 09:35:40;;;;;;;5.82;5.20;;;;;;;24.77;50.21;98509.59;4895237;29;20403;-73
2023/09/08 09:38:05;;;;;;;7.18;4.90;;;;;;;24.92;49.50;98511.81;4895253;29;20039;-73
2023/09/08 09:40:31;;;;;;;8.07;4.88;;;;;;;24.82;48.59;98492.88;4903387;29;20537;-74
2023/09/08 09:42:57;;;;;;;7.35;5.00;;;;;;;25.02;47.95;98500.44;4879125;29;20040;-72
2023/09/08 09:45:25;;;;;;;5.80;4.95;;;;;;;25.14;48.29;98509.59;4891702;29;20089;-73
2023/09/08 09:47:50;;;;;;;8.82;4.93;;;;;;;25.20;46.99;98501.97;4910595;29;20108;-74
2023/09/08 09:50:28;;;;;;;4.95;4.45;;;;;;;25.36;47.13;98501.06;4910896;29;20430;-74
2023/09/08 09:52:57;;;;;;;6.70;5.18;;;;;;;25.45;47.08;98503.78;4910451;29;20166;-74
2023/09/08 09:55:22;;;;;;;5.47;4.78;;;;;;;25.50;46.85;98500.84;4895058;29;20056;-73
2023/09/08 09:57:48;;;;;;;5.35;4.70;;;;;;;25.44;45.83;98487.59;4879457;29;20068;-73
2023/09/08 10:00:14;;;;;;;6.80;4.72;;;;;;;25.62;45.76;98502.88;4879487;29;20079;-74
2023/09/08 10:02:40;;;;;;;6.90;5.05;;;;;;;25.52;46.38;98479.25;4879523;29;20041;-73
2023/09/08 10:05:13;;;;;;;5.28;4.40;;;;;;;25.84;46.86;98489.56;4898550;29;20033;-74
2023/09/08 10:07:40;;;;;;;5.57;4.88;;;;;;;25.92;45.65;98485.94;4882918;29;20032;-74
2023/09/08 10:10:05;;;;;;;5.00;4.35;;;;;;;25.91;45.29;98469.69;4898691;29;20032;-73
2023/09/08 10:12:33;;;;;;;6.63;4.93;;;;;;;26.05;44.36;98476.56;4899664;29;20037;-74
2023/09/08 10:14:59;;;;;;;6.03;4.60;;;;;;;26.11;45.27;98481.91;4898446;29;20079;-74
2023/09/08 10:17:28;;;;;;;6.30;5.40;;;;;;;26.13;44.20;98485.13;4914273;29;20044;-73
2023/09/08 10:19:55;;;;;;;5.85;5.15;;;;;;;26.14;44.44;98475.72;4898239;29;20024;-74
2023/09/08 10:22:25;;;;;;;6.30;5.15;;;;;;;26.13;44.13;98468.56;4898072;29;20458;-73
2023/09/08 10:24:54;;;;;;;6.30;5.15;;;;;;;26.06;43.78;98469.91;4898276;29;20051;-74
2023/09/08 10:27:21;;;;;;;9.07;5.10;;;;;;;26.23;44.62;98476.44;4898275;29;20028;-74
2023/09/08 10:29:47;;;;;;;5.13;4.63;;;;;;;26.19;44.93;98461.66;4898401;29;20072;-73
2023/09/08 10:32:13;;;;;;;5.97;4.60;;;;;;;26.28;43.99;98470.69;4882373;29;20510;-73
2023/09/08 10:34:38;;;;;;;6.20;4.90;;;;;;;26.37;43.73;98457.59;4882568;29;20033;-74
2023/09/08 10:37:18;;;;;;;5.93;4.78;;;;;;;26.54;44.53;98473.97;4899297;29;20036;-74
2023/09/08 10:39:44;;;;;;;5.60;4.80;;;;;;;26.63;45.05;98458.09;4882590;29;20411;-74
2023/09/08 10:42:19;;;;;;;5.43;4.88;;;;;;;26.80;44.59;98465.41;4899033;29;20032;-73
2023/09/08 10:44:47;;;;;;;6.60;4.63;;;;;;;26.86;44.00;98470.41;4899416;29;20051;-74
2023/09/08 10:47:12;;;;;;;8.70;4.93;;;;;;;26.90;44.38;98464.97;4910487;29;20047;-74
2023/09/08 10:49:38;;;;;;;5.95;5.15;;;;;;;27.05;44.16;98450.47;4897960;29;20032;-74
2023/09/08 10:52:11;;;;;;;6.65;4.85;;;;;;;27.16;43.64;98457.97;4897611;29;20028;-74
2023/09/08 10:54:44;;;;;;;5.47;4.90;;;;;;;27.33;43.57;98463.25;4902948;29;20036;-73
2023/09/08 10:57:13;;;;;;;6.53;4.82;;;;;;;27.43;43.56;98456.47;4897914;29;20104;-73
2023/09/08 10:59:38;;;;;;;6.00;5.40;;;;;;;27.56;43.45;98460.03;4897910;29;20044;-74
2023/09/08 11:02:04;;;;;;;7.57;5.10;;;;;;;27.36;42.72;98440.41;4898633;29;20101;-74
2023/09/08 11:04:29;;;;;;;7.47;4.95;;;;;;;27.56;43.45;98455.31;4897387;29;20029;-74
2023/09/08 11:06:58;;;;;;;5.55;4.93;;;;;;;27.66;42.50;98451.22;4898838;29;20123;-74
2023/09/08 11:09:23;;;;;;;6.95;4.88;;;;;;;27.67;42.05;98453.66;4882330;29;20029;-72
2023/09/08 11:11:50;;;;;;;6.47;4.80;;;;;;;27.68;42.62;98443.41;4881776;29;20400;-74
2023/09/08 11:14:15;;;;;;;5.32;4.50;;;;;;;27.84;42.30;98460.88;4897073;29;20072;-74
2023/09/08 11:16:41;;;;;;;7.45;5.00;;;;;;;27.82;42.37;98457.66;4897569;29;20041;-74
2023/09/08 11:19:06;;;;;;;5.40;4.85;;;;;;;27.83;42.26;98448.19;4898588;29;20049;-74
2023/09/08 11:21:36;;;;;;;7.15;4.97;;;;;;;27.86;42.44;98436.41;4897228;29;20036;-74
2023/09/08 11:24:05;;;;;;;5.78;4.63;;;;;;;27.89;41.46;98424.63;4897327;29;20100;-74
2023/09/08 11:26:34;;;;;;;5.53;4.88;;;;;;;28.16;41.10;98446.00;4897326;29;20049;-73
2023/09/08 11:29:00;;;;;;;7.10;4.97;;;;;;;28.22;41.30;98454.84;4897112;29;20024;-73